Airfield :
LOGIN :

Register | Disclaimer

   EN    FR    IT 

 










Legend :    VFR   Marginal VFR   IFR   Intensive IFR   Very Intensive IFR
Visi :
Ceiling :
>= 8 km
>= 3000ft
5 to 8 km
1000 to 3000 ft
1500m to 5 km
500 to 1000 ft
800 to 1500m
200 to 500 ft
< 800m
< 200 ft
Symbols :   Thunderstorms  Fog  Heavy snow  Heavy precipitations  Wind > 20 kt
SIGMETs :     Misc.  Thunderstorms  Icing  Turbulence  Mountain Waves  Volcanic Ashes







- Airport Elevation : 1768 ft


LEHC - Huesca Pirineos

CURRENT METAR :
  • 181530Z 28008KT CAVOK 11/05 Q1020

EXPIRED METARs :
  • 181500Z 27005KT 240V300 CAVOK 11/04 Q1021
  • 181430Z 26004KT 210V330 CAVOK 10/04 Q1021
  • 181400Z 29007KT 250V320 CAVOK 10/04 Q1022
  • 181330Z 28007KT 230V330 CAVOK 10/04 Q1022
  • 181300Z 28006KT 230V330 CAVOK 09/04 Q1023

TAF TAF LEHC
Valid from the 18 at 09:00 until the 19 at 09:00 UTC


180800Z 1809/1909 VRB03KT 9999 FEW030 TX11/1813Z TN03/1907Z
BECMG 1812/1814 28010KT
No reported NOTAMs for that airfield.



MET'MAP, your aeronautical weather chart ! - Copyright ORBIFLY December 2007 - Disclaimer

ORBIFLY MET'MAP TEAM :

Programming & Development : Alexandra Zaïnal
Concept & Development : Baudouin d'Aumeries
Co-Development & Prog : Marc-Olivier Méhu
Technical & hardware support : Manuel Goepfert

Contact : metmap@orbifly.com




SOURCES & CREDITS :

   NOAA